History Data

Date (GMT+4:00) CPM ACPM uSv/h Latitude Longitude Altitude CO CO2 TVOC HCHO Air Pressure Temperature Humidity Type
2024-04-24 19:51:33 18 19.70 0.090000 41.649648 41.62752893 0 0 0 0 0 0 0 0 STD5.60
2024-04-24 19:46:31 22 18.80 0.110000 41.649648 41.62752893 0 0 0 0 0 0 0 0 STD5.60
2024-04-24 19:41:29 15 17.80 0.075000 41.649648 41.62752893 0 0 0 0 0 0 0 0 STD5.60
2024-04-24 19:36:27 13 19.40 0.065000 41.649648 41.62752893 0 0 0 0 0 0 0 0 STD5.60
2024-04-24 19:31:25 17 19.90 0.085000 41.649648 41.62752893 0 0 0 0 0 0 0 0 STD5.60
2024-04-24 19:26:23 19 19.50 0.095000 41.649648 41.62752893 0 0 0 0 0 0 0 0 STD5.60
2024-04-24 19:21:21 18 19.50 0.090000 41.649648 41.62752893 0 0 0 0 0 0 0 0 STD5.60
2024-04-24 19:16:19 22 19.40 0.110000 41.649648 41.62752893 0 0 0 0 0 0 0 0 STD5.60
2024-04-24 19:11:17 15 19.00 0.075000 41.649648 41.62752893 0 0 0 0 0 0 0 0 STD5.60
2024-04-24 19:06:14 24 18.20 0.120000 41.649648 41.62752893 0 0 0 0 0 0 0 0 STD5.60
2024-04-24 19:01:13 16 17.00 0.080000 41.649648 41.62752893 0 0 0 0 0 0 0 0 STD5.60
2024-04-24 18:56:10 20 15.90 0.100000 41.649648 41.62752893 0 0 0 0 0 0 0 0 STD5.60
2024-04-24 18:50:49 12 18.20 0.060000 41.649648 41.62752893 0 0 0 0 0 0 0 0 STD5.60
2024-04-24 18:45:47 18 18.80 0.090000 41.649648 41.62752893 0 0 0 0 0 0 0 0 STD5.60
2024-04-24 18:40:45 14 17.60 0.070000 41.649648 41.62752893 0 0 0 0 0 0 0 0 STD5.60
2024-04-24 18:35:43 17 17.70 0.085000 41.649648 41.62752893 0 0 0 0 0 0 0 0 STD5.60
2024-04-24 18:30:41 17 15.10 0.085000 41.649648 41.62752893 0 0 0 0 0 0 0 0 STD5.60
2024-04-24 18:25:39 16 14.50 0.080000 41.649648 41.62752893 0 0 0 0 0 0 0 0 STD5.60
2024-04-24 18:20:37 10 17.60 0.050000 41.649648 41.62752893 0 0 0 0 0 0 0 0 STD5.60
2024-04-24 18:15:34 16 17.80 0.080000 41.649648 41.62752893 0 0 0 0 0 0 0 0 STD5.60
2024-04-24 18:10:32 14 17.30 0.070000 41.649648 41.62752893 0 0 0 0 0 0 0 0 STD5.60
2024-04-24 18:05:30 25 18.00 0.125000 41.649648 41.62752893 0 0 0 0 0 0 0 0 STD5.60
2024-04-24 18:00:28 20 16.70 0.100000 41.649648 41.62752893 0 0 0 0 0 0 0 0 STD5.60
2024-04-24 17:55:20 11 17.20 0.055000 41.649648 41.62752893 0 0 0 0 0 0 0 0 STD5.60
2024-04-24 17:49:33 24 17.80 0.120000 41.649648 41.62752893 0 0 0 0 0 0 0 0 STD5.60
2024-04-24 17:44:31 11 18.10 0.055000 41.649648 41.62752893 0 0 0 0 0 0 0 0 STD5.60
2024-04-24 17:39:29 27 19.60 0.135000 41.649648 41.62752893 0 0 0 0 0 0 0 0 STD5.60
2024-04-24 17:34:27 10 19.80 0.050000 41.649648 41.62752893 0 0 0 0 0 0 0 0 STD5.60
2024-04-24 17:29:25 16 17.40 0.080000 41.649648 41.62752893 0 0 0 0 0 0 0 0 STD5.60
2024-04-24 17:24:23 13 15.20 0.065000 41.649648 41.62752893 0 0 0 0 0 0 0 0 STD5.60
2024-04-24 17:19:20 11 15.70 0.055000 41.649648 41.62752893 0 0 0 0 0 0 0 0 STD5.60
2024-04-24 17:14:18 20 15.70 0.100000 41.649648 41.62752893 0 0 0 0 0 0 0 0 STD5.60
2024-04-24 17:09:17 11 17.20 0.055000 41.649648 41.62752893 0 0 0 0 0 0 0 0 STD5.60
2024-04-24 17:04:14 15 19.40 0.075000 41.649648 41.62752893 0 0 0 0 0 0 0 0 STD5.60
2024-04-24 16:59:12 23 19.40 0.115000 41.649648 41.62752893 0 0 0 0 0 0 0 0 STD5.60
2024-04-24 16:54:10 16 19.40 0.080000 41.649648 41.62752893 0 0 0 0 0 0 0 0 STD5.60
2024-04-24 16:48:38 23 17.40 0.115000 41.649648 41.62752893 0 0 0 0 0 0 0 0 STD5.60
2024-04-24 16:43:36 18 17.30 0.090000 41.649648 41.62752893 0 0 0 0 0 0 0 0 STD5.60
2024-04-24 16:38:34 21 20.90 0.105000 41.649648 41.62752893 0 0 0 0 0 0 0 0 STD5.60
2024-04-24 16:33:32 17 20.10 0.085000 41.649648 41.62752893 0 0 0 0 0 0 0 0 STD5.60
2024-04-24 16:28:29 15 16.40 0.075000 41.649648 41.62752893 0 0 0 0 0 0 0 0 STD5.60
2024-04-24 16:23:27 21 15.50 0.105000 41.649648 41.62752893 0 0 0 0 0 0 0 0 STD5.60
2024-04-24 16:18:25 15 18.10 0.075000 41.649648 41.62752893 0 0 0 0 0 0 0 0 STD5.60
2024-04-24 16:13:23 23 19.30 0.115000 41.649648 41.62752893 0 0 0 0 0 0 0 0 STD5.60
2024-04-24 16:08:21 14 17.50 0.070000 41.649648 41.62752893 0 0 0 0 0 0 0 0 STD5.60
2024-04-24 16:03:19 15 16.80 0.075000 41.649648 41.62752893 0 0 0 0 0 0 0 0 STD5.60
2024-04-24 15:58:17 21 17.00 0.105000 41.649648 41.62752893 0 0 0 0 0 0 0 0 STD5.60
2024-04-24 15:53:15 18 16.80 0.090000 41.649648 41.62752893 0 0 0 0 0 0 0 0 STD5.60
2024-04-24 15:47:52 13 16.50 0.065000 41.649648 41.62752893 0 0 0 0 0 0 0 0 STD5.60
2024-04-24 15:42:50 12 15.40 0.060000 41.649648 41.62752893 0 0 0 0 0 0 0 0 STD5.60
2024-04-24 15:37:48 17 16.10 0.085000 41.649648 41.62752893 0 0 0 0 0 0 0 0 STD5.60
2024-04-24 15:32:45 21 17.30 0.105000 41.649648 41.62752893 0 0 0 0 0 0 0 0 STD5.60
2024-04-24 15:27:43 14 19.20 0.070000 41.649648 41.62752893 0 0 0 0 0 0 0 0 STD5.60
2024-04-24 15:22:41 27 18.30 0.135000 41.649648 41.62752893 0 0 0 0 0 0 0 0 STD5.60
2024-04-24 15:17:39 18 16.80 0.090000 41.649648 41.62752893 0 0 0 0 0 0 0 0 STD5.60
2024-04-24 15:12:37 21 18.20 0.105000 41.649648 41.62752893 0 0 0 0 0 0 0 0 STD5.60
2024-04-24 15:07:35 23 19.00 0.115000 41.649648 41.62752893 0 0 0 0 0 0 0 0 STD5.60
2024-04-24 15:02:32 21 18.30 0.105000 41.649648 41.62752893 0 0 0 0 0 0 0 0 STD5.60
2024-04-24 14:57:30 22 18.20 0.110000 41.649648 41.62752893 0 0 0 0 0 0 0 0 STD5.60
2024-04-24 14:52:28 17 17.80 0.085000 41.649648 41.62752893 0 0 0 0 0 0 0 0 STD5.60
2024-04-24 14:47:22 20 18.70 0.100000 41.649648 41.62752893 0 0 0 0 0 0 0 0 STD5.60
2024-04-24 14:42:20 16 19.40 0.080000 41.649648 41.62752893 0 0 0 0 0 0 0 0 STD5.60
2024-04-24 14:37:18 17 17.60 0.085000 41.649648 41.62752893 0 0 0 0 0 0 0 0 STD5.60
2024-04-24 14:32:16 18 17.90 0.090000 41.649648 41.62752893 0 0 0 0 0 0 0 0 STD5.60
2024-04-24 14:27:14 23 18.90 0.115000 41.649648 41.62752893 0 0 0 0 0 0 0 0 STD5.60
2024-04-24 14:22:11 21 18.40 0.105000 41.649648 41.62752893 0 0 0 0 0 0 0 0 STD5.60
2024-04-24 14:17:09 22 16.50 0.110000 41.649648 41.62752893 0 0 0 0 0 0 0 0 STD5.60
2024-04-24 14:12:07 19 16.40 0.095000 41.649648 41.62752893 0 0 0 0 0 0 0 0 STD5.60
2024-04-24 14:07:05 18 16.50 0.090000 41.649648 41.62752893 0 0 0 0 0 0 0 0 STD5.60
2024-04-24 14:02:03 16 17.00 0.080000 41.649648 41.62752893 0 0 0 0 0 0 0 0 STD5.60
2024-04-24 13:57:01 21 18.00 0.105000 41.649648 41.62752893 0 0 0 0 0 0 0 0 STD5.60
2024-04-24 13:51:59 10 19.20 0.050000 41.649648 41.62752893 0 0 0 0 0 0 0 0 STD5.60
2024-04-24 13:46:42 25 19.00 0.125000 41.649648 41.62752893 0 0 0 0 0 0 0 0 STD5.60
2024-04-24 13:41:40 10 18.40 0.050000 41.649648 41.62752893 0 0 0 0 0 0 0 0 STD5.60
2024-04-24 13:36:38 14 17.90 0.070000 41.649648 41.62752893 0 0 0 0 0 0 0 0 STD5.60
2024-04-24 13:31:35 13 16.30 0.065000 41.649648 41.62752893 0 0 0 0 0 0 0 0 STD5.60
2024-04-24 13:26:34 18 16.90 0.090000 41.649648 41.62752893 0 0 0 0 0 0 0 0 STD5.60
2024-04-24 13:21:31 19 17.70 0.095000 41.649648 41.62752893 0 0 0 0 0 0 0 0 STD5.60
2024-04-24 13:16:29 23 16.60 0.115000 41.649648 41.62752893 0 0 0 0 0 0 0 0 STD5.60
2024-04-24 13:11:27 18 17.30 0.090000 41.649648 41.62752893 0 0 0 0 0 0 0 0 STD5.60
2024-04-24 13:06:25 28 19.70 0.140000 41.649648 41.62752893 0 0 0 0 0 0 0 0 STD5.60
2024-04-24 13:01:23 20 19.80 0.100000 41.649648 41.62752893 0 0 0 0 0 0 0 0 STD5.60
2024-04-24 12:56:21 18 17.90 0.090000 41.649648 41.62752893 0 0 0 0 0 0 0 0 STD5.60
2024-04-24 12:51:17 14 17.30 0.070000 41.649648 41.62752893 0 0 0 0 0 0 0 0 STD5.60
2024-04-24 12:45:59 16 17.60 0.080000 41.649648 41.62752893 0 0 0 0 0 0 0 0 STD5.60
2024-04-24 12:40:57 13 16.70 0.065000 41.649648 41.62752893 0 0 0 0 0 0 0 0 STD5.60
2024-04-24 12:35:55 16 17.50 0.080000 41.649648 41.62752893 0 0 0 0 0 0 0 0 STD5.60
2024-04-24 12:30:52 18 18.20 0.090000 41.649648 41.62752893 0 0 0 0 0 0 0 0 STD5.60
2024-04-24 12:25:50 14 16.90 0.070000 41.649648 41.62752893 0 0 0 0 0 0 0 0 STD5.60
2024-04-24 12:20:48 18 17.80 0.090000 41.649648 41.62752893 0 0 0 0 0 0 0 0 STD5.60
2024-04-24 12:15:46 20 18.00 0.100000 41.649648 41.62752893 0 0 0 0 0 0 0 0 STD5.60
2024-04-24 12:10:43 12 18.90 0.060000 41.649648 41.62752893 0 0 0 0 0 0 0 0 STD5.60
2024-04-24 12:05:41 23 18.80 0.115000 41.649648 41.62752893 0 0 0 0 0 0 0 0 STD5.60
2024-04-24 12:00:39 15 17.90 0.075000 41.649648 41.62752893 0 0 0 0 0 0 0 0 STD5.60
2024-04-24 11:55:37 14 17.40 0.070000 41.649648 41.62752893 0 0 0 0 0 0 0 0 STD5.60
2024-04-24 11:50:35 18 17.00 0.090000 41.649648 41.62752893 0 0 0 0 0 0 0 0 STD5.60
2024-04-24 11:45:28 16 18.60 0.080000 41.649648 41.62752893 0 0 0 0 0 0 0 0 STD5.60
2024-04-24 11:40:26 22 17.00 0.110000 41.649648 41.62752893 0 0 0 0 0 0 0 0 STD5.60
2024-04-24 11:35:24 16 16.20 0.080000 41.649648 41.62752893 0 0 0 0 0 0 0 0 STD5.60
2024-04-24 11:30:23 15 16.90 0.075000 41.649648 41.62752893 0 0 0 0 0 0 0 0 STD5.60
2024-04-24 11:25:21 22 17.00 0.110000 41.649648 41.62752893 0 0 0 0 0 0 0 0 STD5.60
2024-04-24 11:20:19 15 18.50 0.075000 41.649648 41.62752893 0 0 0 0 0 0 0 0 STD5.60
2024-04-24 11:15:17 20 19.20 0.100000 41.649648 41.62752893 0 0 0 0 0 0 0 0 STD5.60
2024-04-24 11:10:15 16 18.60 0.080000 41.649648 41.62752893 0 0 0 0 0 0 0 0 STD5.60
2024-04-24 11:05:13 15 17.90 0.075000 41.649648 41.62752893 0 0 0 0 0 0 0 0 STD5.60
2024-04-24 11:00:12 18 17.20 0.090000 41.649648 41.62752893 0 0 0 0 0 0 0 0 STD5.60
2024-04-24 10:55:09 19 17.00 0.095000 41.649648 41.62752893 0 0 0 0 0 0 0 0 STD5.60
2024-04-24 10:49:18 20 18.60 0.100000 41.649648 41.62752893 0 0 0 0 0 0 0 0 STD5.60
2024-04-24 10:44:16 18 19.10 0.090000 41.649648 41.62752893 0 0 0 0 0 0 0 0 STD5.60
2024-04-24 10:39:14 23 17.90 0.115000 41.649648 41.62752893 0 0 0 0 0 0 0 0 STD5.60
2024-04-24 10:34:12 17 18.60 0.085000 41.649648 41.62752893 0 0 0 0 0 0 0 0 STD5.60
2024-04-24 10:29:09 19 17.10 0.095000 41.649648 41.62752893 0 0 0 0 0 0 0 0 STD5.60
2024-04-24 10:24:07 11 16.20 0.055000 41.649648 41.62752893 0 0 0 0 0 0 0 0 STD5.60
2024-04-24 10:19:06 14 17.20 0.070000 41.649648 41.62752893 0 0 0 0 0 0 0 0 STD5.60
2024-04-24 10:14:04 16 17.20 0.080000 41.649648 41.62752893 0 0 0 0 0 0 0 0 STD5.60
2024-04-24 10:09:02 14 19.00 0.070000 41.649648 41.62752893 0 0 0 0 0 0 0 0 STD5.60
2024-04-24 10:03:59 17 21.50 0.085000 41.649648 41.62752893 0 0 0 0 0 0 0 0 STD5.60
2024-04-24 09:58:57 18 19.00 0.090000 41.649648 41.62752893 0 0 0 0 0 0 0 0 STD5.60
2024-04-24 09:53:55 17 7.90 0.085000 41.649648 41.62752893 0 0 0 0 0 0 0 0 STD5.60
2024-04-24 09:48:31 15 18.30 0.075000 41.649648 41.62752893 0 0 0 0 0 0 0 0 STD5.60
2024-04-24 09:43:29 23 18.60 0.115000 41.649648 41.62752893 0 0 0 0 0 0 0 0 STD5.60
2024-04-24 09:38:27 16 16.60 0.080000 41.649648 41.62752893 0 0 0 0 0 0 0 0 STD5.60
2024-04-24 09:33:24 17 17.40 0.085000 41.649648 41.62752893 0 0 0 0 0 0 0 0 STD5.60
2024-04-24 09:28:22 20 18.30 0.100000 41.649648 41.62752893 0 0 0 0 0 0 0 0 STD5.60
2024-04-24 09:23:20 25 15.60 0.125000 41.649648 41.62752893 0 0 0 0 0 0 0 0 STD5.60
2024-04-24 09:18:18 16 17.60 0.080000 41.649648 41.62752893 0 0 0 0 0 0 0 0 STD5.60
2024-04-24 09:13:16 12 18.70 0.060000 41.649648 41.62752893 0 0 0 0 0 0 0 0 STD5.60
2024-04-24 09:08:13 16 18.50 0.080000 41.649648 41.62752893 0 0 0 0 0 0 0 0 STD5.60
2024-04-24 09:03:11 22 19.70 0.110000 41.649648 41.62752893 0 0 0 0 0 0 0 0 STD5.60
2024-04-24 08:58:09 19 17.90 0.095000 41.649648 41.62752893 0 0 0 0 0 0 0 0 STD5.60
2024-04-24 08:53:07 19 18.20 0.095000 41.649648 41.62752893 0 0 0 0 0 0 0 0 STD5.60
2024-04-24 08:48:05 12 19.10 0.060000 41.649648 41.62752893 0 0 0 0 0 0 0 0 STD5.60
2024-04-24 08:43:02 17 19.80 0.085000 41.649648 41.62752893 0 0 0 0 0 0 0 0 STD5.60
2024-04-24 08:38:01 18 17.90 0.090000 41.649648 41.62752893 0 0 0 0 0 0 0 0 STD5.60
2024-04-24 08:32:59 17 17.60 0.085000 41.649648 41.62752893 0 0 0 0 0 0 0 0 STD5.60
2024-04-24 08:27:56 15 20.80 0.075000 41.649648 41.62752893 0 0 0 0 0 0 0 0 STD5.60
2024-04-24 08:22:54 32 21.40 0.160000 41.649648 41.62752893 0 0 0 0 0 0 0 0 STD5.60
2024-04-24 08:17:52 26 18.20 0.130000 41.649648 41.62752893 0 0 0 0 0 0 0 0 STD5.60
2024-04-24 08:12:50 18 16.40 0.090000 41.649648 41.62752893 0 0 0 0 0 0 0 0 STD5.60
2024-04-24 08:07:48 12 16.90 0.060000 41.649648 41.62752893 0 0 0 0 0 0 0 0 STD5.60
2024-04-24 08:02:46 13 17.60 0.065000 41.649648 41.62752893 0 0 0 0 0 0 0 0 STD5.60
2024-04-24 07:57:43 15 17.90 0.075000 41.649648 41.62752893 0 0 0 0 0 0 0 0 STD5.60
2024-04-24 07:52:41 18 16.90 0.090000 41.649648 41.62752893 0 0 0 0 0 0 0 0 STD5.60
2024-04-24 07:47:24 17 16.10 0.085000 41.649648 41.62752893 0 0 0 0 0 0 0 0 STD5.60
2024-04-24 07:42:22 15 16.00 0.075000 41.649648 41.62752893 0 0 0 0 0 0 0 0 STD5.60
2024-04-24 07:37:20 26 17.70 0.130000 41.649648 41.62752893 0 0 0 0 0 0 0 0 STD5.60
2024-04-24 07:32:18 21 17.60 0.105000 41.649648 41.62752893 0 0 0 0 0 0 0 0 STD5.60
2024-04-24 07:27:16 14 17.30 0.070000 41.649648 41.62752893 0 0 0 0 0 0 0 0 STD5.60
2024-04-24 07:22:13 20 19.80 0.100000 41.649648 41.62752893 0 0 0 0 0 0 0 0 STD5.60
2024-04-24 07:17:11 28 19.00 0.140000 41.649648 41.62752893 0 0 0 0 0 0 0 0 STD5.60
2024-04-24 07:12:09 13 18.30 0.065000 41.649648 41.62752893 0 0 0 0 0 0 0 0 STD5.60
2024-04-24 07:07:07 19 19.10 0.095000 41.649648 41.62752893 0 0 0 0 0 0 0 0 STD5.60
2024-04-24 07:02:05 16 17.80 0.080000 41.649648 41.62752893 0 0 0 0 0 0 0 0 STD5.60
2024-04-24 06:57:03 16 17.50 0.080000 41.649648 41.62752893 0 0 0 0 0 0 0 0 STD5.60
2024-04-24 06:52:01 13 17.40 0.065000 41.649648 41.62752893 0 0 0 0 0 0 0 0 STD5.60
2024-04-24 06:46:57 17 16.10 0.085000 41.649648 41.62752893 0 0 0 0 0 0 0 0 STD5.60
2024-04-24 06:41:54 8 16.70 0.040000 41.649648 41.62752893 0 0 0 0 0 0 0 0 STD5.60
2024-04-24 06:36:52 17 18.30 0.085000 41.649648 41.62752893 0 0 0 0 0 0 0 0 STD5.60
2024-04-24 06:31:51 15 17.80 0.075000 41.649648 41.62752893 0 0 0 0 0 0 0 0 STD5.60
2024-04-24 06:26:48 21 16.50 0.105000 41.649648 41.62752893 0 0 0 0 0 0 0 0 STD5.60
2024-04-24 06:21:46 12 16.50 0.060000 41.649648 41.62752893 0 0 0 0 0 0 0 0 STD5.60
2024-04-24 06:16:44 14 19.50 0.070000 41.649648 41.62752893 0 0 0 0 0 0 0 0 STD5.60
2024-04-24 06:11:42 30 19.00 0.150000 41.649648 41.62752893 0 0 0 0 0 0 0 0 STD5.60
2024-04-24 06:06:40 22 18.00 0.110000 41.649648 41.62752893 0 0 0 0 0 0 0 0 STD5.60
2024-04-24 06:01:38 24 17.60 0.120000 41.649648 41.62752893 0 0 0 0 0 0 0 0 STD5.60
2024-04-24 05:56:35 17 17.70 0.085000 41.649648 41.62752893 0 0 0 0 0 0 0 0 STD5.60
2024-04-24 05:51:33 24 17.00 0.120000 41.649648 41.62752893 0 0 0 0 0 0 0 0 STD5.60
2024-04-24 05:46:16 23 17.10 0.115000 41.649648 41.62752893 0 0 0 0 0 0 0 0 STD5.60
2024-04-24 05:41:14 19 19.20 0.095000 41.649648 41.62752893 0 0 0 0 0 0 0 0 STD5.60
2024-04-24 05:36:12 25 20.00 0.125000 41.649648 41.62752893 0 0 0 0 0 0 0 0 STD5.60
2024-04-24 05:31:10 17 20.00 0.085000 41.649648 41.62752893 0 0 0 0 0 0 0 0 STD5.60
2024-04-24 05:26:08 18 18.40 0.090000 41.649648 41.62752893 0 0 0 0 0 0 0 0 STD5.60
2024-04-24 05:21:06 14 18.10 0.070000 41.649648 41.62752893 0 0 0 0 0 0 0 0 STD5.60
2024-04-24 05:16:04 19 18.60 0.095000 41.649648 41.62752893 0 0 0 0 0 0 0 0 STD5.60
2024-04-24 05:11:02 14 18.60 0.070000 41.649648 41.62752893 0 0 0 0 0 0 0 0 STD5.60
2024-04-24 05:05:59 22 17.50 0.110000 41.649648 41.62752893 0 0 0 0 0 0 0 0 STD5.60
2024-04-24 05:00:58 16 16.70 0.080000 41.649648 41.62752893 0 0 0 0 0 0 0 0 STD5.60
2024-04-24 04:55:56 16 17.90 0.080000 41.649648 41.62752893 0 0 0 0 0 0 0 0 STD5.60
2024-04-24 04:50:54 22 19.70 0.110000 41.649648 41.62752893 0 0 0 0 0 0 0 0 STD5.60
2024-04-24 04:45:46 18 18.50 0.090000 41.649648 41.62752893 0 0 0 0 0 0 0 0 STD5.60
2024-04-24 04:40:44 10 16.60 0.050000 41.649648 41.62752893 0 0 0 0 0 0 0 0 STD5.60
2024-04-24 04:35:42 18 18.30 0.090000 41.649648 41.62752893 0 0 0 0 0 0 0 0 STD5.60
2024-04-24 04:30:40 15 19.00 0.075000 41.649648 41.62752893 0 0 0 0 0 0 0 0 STD5.60
2024-04-24 04:25:38 19 19.80 0.095000 41.649648 41.62752893 0 0 0 0 0 0 0 0 STD5.60
2024-04-24 04:20:36 26 20.10 0.130000 41.649648 41.62752893 0 0 0 0 0 0 0 0 STD5.60
2024-04-24 04:15:34 18 19.10 0.090000 41.649648 41.62752893 0 0 0 0 0 0 0 0 STD5.60
2024-04-24 04:10:31 25 17.20 0.125000 41.649648 41.62752893 0 0 0 0 0 0 0 0 STD5.60
2024-04-24 04:05:29 14 17.10 0.070000 41.649648 41.62752893 0 0 0 0 0 0 0 0 STD5.60
2024-04-24 04:00:27 17 18.10 0.085000 41.649648 41.62752893 0 0 0 0 0 0 0 0 STD5.60
2024-04-24 03:55:25 12 18.10 0.060000 41.649648 41.62752893 0 0 0 0 0 0 0 0 STD5.60
2024-04-24 03:50:23 15 20.50 0.075000 41.649648 41.62752893 0 0 0 0 0 0 0 0 STD5.60
2024-04-24 03:45:19 25 18.20 0.125000 41.649648 41.62752893 0 0 0 0 0 0 0 0 STD5.60
2024-04-24 03:40:17 10 16.10 0.050000 41.649648 41.62752893 0 0 0 0 0 0 0 0 STD5.60
2024-04-24 03:35:15 12 17.70 0.060000 41.649648 41.62752893 0 0 0 0 0 0 0 0 STD5.60
2024-04-24 03:30:13 22 18.90 0.110000 41.649648 41.62752893 0 0 0 0 0 0 0 0 STD5.60
2024-04-24 03:25:11 21 19.30 0.105000 41.649648 41.62752893 0 0 0 0 0 0 0 0 STD5.60
2024-04-24 03:20:08 15 18.90 0.075000 41.649648 41.62752893 0 0 0 0 0 0 0 0 STD5.60
2024-04-24 03:15:07 24 18.90 0.120000 41.649648 41.62752893 0 0 0 0 0 0 0 0 STD5.60
2024-04-24 03:10:05 22 18.20 0.110000 41.649648 41.62752893 0 0 0 0 0 0 0 0 STD5.60
2024-04-24 03:05:02 16 18.00 0.080000 41.649648 41.62752893 0 0 0 0 0 0 0 0 STD5.60
2024-04-24 03:00:02 20 18.10 0.100000 41.649648 41.62752893 0 0 0 0 0 0 0 0 STD5.60
2024-04-24 02:54:58 18 18.40 0.090000 41.649648 41.62752893 0 0 0 0 0 0 0 0 STD5.60
2024-04-24 02:49:56 25 18.80 0.125000 41.649648 41.62752893 0 0 0 0 0 0 0 0 STD5.60
2024-04-24 02:44:22 16 18.00 0.080000 41.649648 41.62752893 0 0 0 0 0 0 0 0 STD5.60
2024-04-24 02:39:20 16 19.10 0.080000 41.649648 41.62752893 0 0 0 0 0 0 0 0 STD5.60
2024-04-24 02:34:18 22 20.30 0.110000 41.649648 41.62752893 0 0 0 0 0 0 0 0 STD5.60
2024-04-24 02:29:16 25 18.40 0.125000 41.649648 41.62752893 0 0 0 0 0 0 0 0 STD5.60
2024-04-24 02:24:14 23 18.40 0.115000 41.649648 41.62752893 0 0 0 0 0 0 0 0 STD5.60
2024-04-24 02:19:13 16 19.60 0.080000 41.649648 41.62752893 0 0 0 0 0 0 0 0 STD5.60
2024-04-24 02:14:10 25 19.80 0.125000 41.649648 41.62752893 0 0 0 0 0 0 0 0 STD5.60
2024-04-24 02:09:08 24 18.60 0.120000 41.649648 41.62752893 0 0 0 0 0 0 0 0 STD5.60
2024-04-24 02:04:06 18 17.70 0.090000 41.649648 41.62752893 0 0 0 0 0 0 0 0 STD5.60
2024-04-24 01:59:04 20 17.20 0.100000 41.649648 41.62752893 0 0 0 0 0 0 0 0 STD5.60
2024-04-24 01:54:02 11 18.00 0.055000 41.649648 41.62752893 0 0 0 0 0 0 0 0 STD5.60
2024-04-24 01:48:59 22 18.60 0.110000 41.649648 41.62752893 0 0 0 0 0 0 0 0 STD5.60
2024-04-24 01:43:51 13 16.90 0.065000 41.649648 41.62752893 0 0 0 0 0 0 0 0 STD5.60
2024-04-24 01:38:49 18 18.30 0.090000 41.649648 41.62752893 0 0 0 0 0 0 0 0 STD5.60
2024-04-24 01:33:47 18 17.70 0.090000 41.649648 41.62752893 0 0 0 0 0 0 0 0 STD5.60
2024-04-24 01:28:46 11 17.50 0.055000 41.649648 41.62752893 0 0 0 0 0 0 0 0 STD5.60
2024-04-24 01:23:43 16 19.40 0.080000 41.649648 41.62752893 0 0 0 0 0 0 0 0 STD5.60
2024-04-24 01:18:41 22 18.70 0.110000 41.649648 41.62752893 0 0 0 0 0 0 0 0 STD5.60
2024-04-24 01:13:39 24 17.80 0.120000 41.649648 41.62752893 0 0 0 0 0 0 0 0 STD5.60
2024-04-24 01:08:37 12 16.10 0.060000 41.649648 41.62752893 0 0 0 0 0 0 0 0 STD5.60
2024-04-24 01:03:34 11 16.80 0.055000 41.649648 41.62752893 0 0 0 0 0 0 0 0 STD5.60
2024-04-24 00:58:32 22 18.60 0.110000 41.649648 41.62752893 0 0 0 0 0 0 0 0 STD5.60
2024-04-24 00:53:30 17 19.10 0.085000 41.649648 41.62752893 0 0 0 0 0 0 0 0 STD5.60
2024-04-24 00:48:28 27 19.50 0.135000 41.649648 41.62752893 0 0 0 0 0 0 0 0 STD5.60
2024-04-24 00:43:26 24 19.80 0.120000 41.649648 41.62752893 0 0 0 0 0 0 0 0 STD5.60
2024-04-24 00:38:24 16 19.40 0.080000 41.649648 41.62752893 0 0 0 0 0 0 0 0 STD5.60
2024-04-24 00:33:22 17 18.30 0.085000 41.649648 41.62752893 0 0 0 0 0 0 0 0 STD5.60
2024-04-24 00:28:20 20 18.20 0.100000 41.649648 41.62752893 0 0 0 0 0 0 0 0 STD5.60
2024-04-24 00:23:18 29 16.50 0.145000 41.649648 41.62752893 0 0 0 0 0 0 0 0 STD5.60
2024-04-24 00:18:15 15 17.10 0.075000 41.649648 41.62752893 0 0 0 0 0 0 0 0 STD5.60
2024-04-24 00:13:14 17 19.10 0.085000 41.649648 41.62752893 0 0 0 0 0 0 0 0 STD5.60
2024-04-24 00:08:12 20 17.20 0.100000 41.649648 41.62752893 0 0 0 0 0 0 0 0 STD5.60
2024-04-24 00:03:10 15 18.20 0.075000 41.649648 41.62752893 0 0 0 0 0 0 0 0 STD5.60
2024-04-23 23:58:07 23 19.30 0.115000 41.649648 41.62752893 0 0 0 0 0 0 0 0 STD5.60
2024-04-23 23:53:05 13 17.10 0.065000 41.649648 41.62752893 0 0 0 0 0 0 0 0 STD5.60
2024-04-23 23:48:03 19 16.70 0.095000 41.649648 41.62752893 0 0 0 0 0 0 0 0 STD5.60
2024-04-23 23:42:01 13 18.20 0.065000 41.649648 41.62752893 0 0 0 0 0 0 0 0 STD5.60
2024-04-23 23:36:59 20 19.30 0.100000 41.649648 41.62752893 0 0 0 0 0 0 0 0 STD5.60
2024-04-23 23:31:57 23 17.80 0.115000 41.649648 41.62752893 0 0 0 0 0 0 0 0 STD5.60
2024-04-23 23:26:55 12 16.50 0.060000 41.649648 41.62752893 0 0 0 0 0 0 0 0 STD5.60
2024-04-23 23:21:53 13 18.50 0.065000 41.649648 41.62752893 0 0 0 0 0 0 0 0 STD5.60
2024-04-23 23:16:51 20 19.30 0.100000 41.649648 41.62752893 0 0 0 0 0 0 0 0 STD5.60
2024-04-23 23:11:49 19 17.80 0.095000 41.649648 41.62752893 0 0 0 0 0 0 0 0 STD5.60
2024-04-23 23:06:47 18 17.40 0.090000 41.649648 41.62752893 0 0 0 0 0 0 0 0 STD5.60
2024-04-23 23:01:45 14 18.00 0.070000 41.649648 41.62752893 0 0 0 0 0 0 0 0 STD5.60
2024-04-23 22:56:43 12 18.00 0.060000 41.649648 41.62752893 0 0 0 0 0 0 0 0 STD5.60
2024-04-23 22:51:41 17 18.60 0.085000 41.649648 41.62752893 0 0 0 0 0 0 0 0 STD5.60
2024-04-23 22:46:39 23 17.40 0.115000 41.649648 41.62752893 0 0 0 0 0 0 0 0 STD5.60
2024-04-23 22:41:17 20 17.90 0.100000 41.649648 41.62752893 0 0 0 0 0 0 0 0 STD5.60
2024-04-23 22:36:15 20 18.70 0.100000 41.649648 41.62752893 0 0 0 0 0 0 0 0 STD5.60
2024-04-23 22:31:13 14 17.60 0.070000 41.649648 41.62752893 0 0 0 0 0 0 0 0 STD5.60
2024-04-23 22:26:11 11 16.90 0.055000 41.649648 41.62752893 0 0 0 0 0 0 0 0 STD5.60
2024-04-23 22:21:09 20 17.50 0.100000 41.649648 41.62752893 0 0 0 0 0 0 0 0 STD5.60
2024-04-23 22:16:07 16 18.40 0.080000 41.649648 41.62752893 0 0 0 0 0 0 0 0 STD5.60
2024-04-23 22:11:05 24 17.20 0.120000 41.649648 41.62752893 0 0 0 0 0 0 0 0 STD5.60
2024-04-23 22:06:03 15 18.60 0.075000 41.649648 41.62752893 0 0 0 0 0 0 0 0 STD5.60
2024-04-23 22:01:01 21 20.30 0.105000 41.649648 41.62752893 0 0 0 0 0 0 0 0 STD5.60
2024-04-23 21:55:58 21 17.90 0.105000 41.649648 41.62752893 0 0 0 0 0 0 0 0 STD5.60
2024-04-23 21:50:56 19 18.10 0.095000 41.649648 41.62752893 0 0 0 0 0 0 0 0 STD5.60
2024-04-23 21:45:54 22 20.40 0.110000 41.649648 41.62752893 0 0 0 0 0 0 0 0 STD5.60
2024-04-23 21:40:50 19 17.50 0.095000 41.649648 41.62752893 0 0 0 0 0 0 0 0 STD5.60
2024-04-23 21:35:48 14 15.30 0.070000 41.649648 41.62752893 0 0 0 0 0 0 0 0 STD5.60
2024-04-23 21:30:46 16 16.70 0.080000 41.649648 41.62752893 0 0 0 0 0 0 0 0 STD5.60
2024-04-23 21:25:44 15 18.90 0.075000 41.649648 41.62752893 0 0 0 0 0 0 0 0 STD5.60
2024-04-23 21:20:41 16 20.10 0.080000 41.649648 41.62752893 0 0 0 0 0 0 0 0 STD5.60
2024-04-23 21:15:39 23 17.60 0.115000 41.649648 41.62752893 0 0 0 0 0 0 0 0 STD5.60
2024-04-23 21:10:37 13 16.20 0.065000 41.649648 41.62752893 0 0 0 0 0 0 0 0 STD5.60
2024-04-23 20:55:31 14 17.40 0.070000 41.649648 41.62752893 0 0 0 0 0 0 0 0 STD5.60
2024-04-23 20:45:27 15 15.50 0.075000 41.649648 41.62752893 0 0 0 0 0 0 0 0 STD5.60
2024-04-23 20:40:10 15 16.40 0.075000 41.649648 41.62752893 0 0 0 0 0 0 0 0 STD5.60
2024-04-23 20:35:08 18 16.00 0.090000 41.649648 41.62752893 0 0 0 0 0 0 0 0 STD5.60
2024-04-23 20:30:06 25 16.90 0.125000 41.649648 41.62752893 0 0 0 0 0 0 0 0 STD5.60
2024-04-23 20:25:04 17 18.90 0.085000 41.649648 41.62752893 0 0 0 0 0 0 0 0 STD5.60
2024-04-23 20:20:02 21 19.20 0.105000 41.649648 41.62752893 0 0 0 0 0 0 0 0 STD5.60
2024-04-23 20:15:00 12 19.50 0.060000 41.649648 41.62752893 0 0 0 0 0 0 0 0 STD5.60
2024-04-23 20:09:58 22 17.70 0.110000 41.649648 41.62752893 0 0 0 0 0 0 0 0 STD5.60
2024-04-23 20:04:57 20 16.50 0.100000 41.649648 41.62752893 0 0 0 0 0 0 0 0 STD5.60
2024-04-23 19:59:54 16 16.90 0.080000 41.649648 41.62752893 0 0 0 0 0 0 0 0 STD5.60
2024-04-23 19:54:51 14 17.60 0.070000 41.649648 41.62752893 0 0 0 0 0 0 0 0 STD5.60
2024-04-23 19:49:49 20 17.90 0.100000 41.649648 41.62752893 0 0 0 0 0 0 0 0 STD5.60
2024-04-23 19:44:49 22 19.00 0.110000 41.649648 41.62752893 0 0 0 0 0 0 0 0 STD5.60
2024-04-23 19:38:43 16 19.60 0.080000 41.649648 41.62752893 0 0 0 0 0 0 0 0 STD5.60
2024-04-23 19:33:41 19 18.30 0.095000 41.649648 41.62752893 0 0 0 0 0 0 0 0 STD5.60
2024-04-23 19:28:39 24 18.40 0.120000 41.649648 41.62752893 0 0 0 0 0 0 0 0 STD5.60
2024-04-23 19:23:37 12 19.20 0.060000 41.649648 41.62752893 0 0 0 0 0 0 0 0 STD5.60
2024-04-23 19:18:35 18 17.60 0.090000 41.649648 41.62752893 0 0 0 0 0 0 0 0 STD5.60
2024-04-23 19:13:32 23 17.40 0.115000 41.649648 41.62752893 0 0 0 0 0 0 0 0 STD5.60
2024-04-23 19:08:30 17 19.40 0.085000 41.649648 41.62752893 0 0 0 0 0 0 0 0 STD5.60
2024-04-23 19:03:28 20 16.80 0.100000 41.649648 41.62752893 0 0 0 0 0 0 0 0 STD5.60
2024-04-23 18:58:26 10 16.60 0.050000 41.649648 41.62752893 0 0 0 0 0 0 0 0 STD5.60
2024-04-23 18:53:24 15 18.10 0.075000 41.649648 41.62752893 0 0 0 0 0 0 0 0 STD5.60
2024-04-23 18:48:22 17 17.10 0.085000 41.649648 41.62752893 0 0 0 0 0 0 0 0 STD5.60
2024-04-23 18:43:20 8 17.20 0.040000 41.649648 41.62752893 0 0 0 0 0 0 0 0 STD5.60
2024-04-23 18:38:01 20 18.00 0.100000 41.649648 41.62752893 0 0 0 0 0 0 0 0 STD5.60
2024-04-23 18:32:59 18 18.90 0.090000 41.649648 41.62752893 0 0 0 0 0 0 0 0 STD5.60
2024-04-23 18:27:56 18 18.30 0.090000 41.649648 41.62752893 0 0 0 0 0 0 0 0 STD5.60
2024-04-23 18:22:54 15 18.10 0.075000 41.649648 41.62752893 0 0 0 0 0 0 0 0 STD5.60
2024-04-23 18:17:53 24 19.40 0.120000 41.649648 41.62752893 0 0 0 0 0 0 0 0 STD5.60
2024-04-23 18:12:50 16 17.80 0.080000 41.649648 41.62752893 0 0 0 0 0 0 0 0 STD5.60
2024-04-23 18:07:48 19 19.40 0.095000 41.649648 41.62752893 0 0 0 0 0 0 0 0 STD5.60
2024-04-23 18:02:46 19 17.70 0.095000 41.649648 41.62752893 0 0 0 0 0 0 0 0 STD5.60
2024-04-23 17:57:44 15 17.00 0.075000 41.649648 41.62752893 0 0 0 0 0 0 0 0 STD5.60
2024-04-23 17:52:42 22 19.70 0.110000 41.649648 41.62752893 0 0 0 0 0 0 0 0 STD5.60
2024-04-23 17:47:40 27 16.90 0.135000 41.649648 41.62752893 0 0 0 0 0 0 0 0 STD5.60
2024-04-23 17:42:38 14 18.20 0.070000 41.649648 41.62752893 0 0 0 0 0 0 0 0 STD5.60
2024-04-23 17:37:19 21 20.60 0.105000 41.649648 41.62752893 0 0 0 0 0 0 0 0 STD5.60
2024-04-23 17:32:17 25 20.70 0.125000 41.649648 41.62752893 0 0 0 0 0 0 0 0 STD5.60
2024-04-23 17:27:15 20 19.40 0.100000 41.649648 41.62752893 0 0 0 0 0 0 0 0 STD5.60
2024-04-23 17:22:13 16 18.40 0.080000 41.649648 41.62752893 0 0 0 0 0 0 0 0 STD5.60
2024-04-23 17:17:10 18 16.70 0.090000 41.649648 41.62752893 0 0 0 0 0 0 0 0 STD5.60
2024-04-23 17:12:08 16 16.40 0.080000 41.649648 41.62752893 0 0 0 0 0 0 0 0 STD5.60
2024-04-23 17:07:06 18 18.70 0.090000 41.649648 41.62752893 0 0 0 0 0 0 0 0 STD5.60
2024-04-23 17:02:04 23 17.70 0.115000 41.649648 41.62752893 0 0 0 0 0 0 0 0 STD5.60
2024-04-23 16:57:02 17 14.60 0.085000 41.649648 41.62752893 0 0 0 0 0 0 0 0 STD5.60
2024-04-23 16:52:00 9 14.80 0.045000 41.649648 41.62752893 0 0 0 0 0 0 0 0 STD5.60
2024-04-23 16:46:57 15 17.20 0.075000 41.649648 41.62752893 0 0 0 0 0 0 0 0 STD5.60
2024-04-23 16:41:55 12 18.10 0.060000 41.649648 41.62752893 0 0 0 0 0 0 0 0 STD5.60
2024-04-23 16:36:36 19 16.20 0.095000 41.649648 41.62752893 0 0 0 0 0 0 0 0 STD5.60
2024-04-23 16:31:35 14 16.90 0.070000 41.649648 41.62752893 0 0 0 0 0 0 0 0 STD5.60
2024-04-23 16:26:32 13 19.00 0.065000 41.649648 41.62752893 0 0 0 0 0 0 0 0 STD5.60
2024-04-23 16:21:30 17 17.80 0.085000 41.649648 41.62752893 0 0 0 0 0 0 0 0 STD5.60
2024-04-23 16:16:28 18 18.20 0.090000 41.649648 41.62752893 0 0 0 0 0 0 0 0 STD5.60
2024-04-23 16:11:26 23 19.80 0.115000 41.649648 41.62752893 0 0 0 0 0 0 0 0 STD5.60
2024-04-23 16:06:24 17 20.40 0.085000 41.649648 41.62752893 0 0 0 0 0 0 0 0 STD5.60
2024-04-23 16:01:22 21 17.00 0.105000 41.649648 41.62752893 0 0 0 0 0 0 0 0 STD5.60
2024-04-23 15:56:20 16 16.80 0.080000 41.649648 41.62752893 0 0 0 0 0 0 0 0 STD5.60
2024-04-23 15:51:17 23 20.90 0.115000 41.649648 41.62752893 0 0 0 0 0 0 0 0 STD5.60
2024-04-23 15:46:15 22 21.30 0.110000 41.649648 41.62752893 0 0 0 0 0 0 0 0 STD5.60
2024-04-23 15:41:13 8 18.40 0.040000 41.649648 41.62752893 0 0 0 0 0 0 0 0 STD5.60
2024-04-23 15:35:26 18 16.70 0.090000 41.649648 41.62752893 0 0 0 0 0 0 0 0 STD5.60
2024-04-23 15:30:25 10 16.60 0.050000 41.649648 41.62752893 0 0 0 0 0 0 0 0 STD5.60
2024-04-23 15:25:22 15 18.00 0.075000 41.649648 41.62752893 0 0 0 0 0 0 0 0 STD5.60
2024-04-23 15:20:20 18 19.70 0.090000 41.649648 41.62752893 0 0 0 0 0 0 0 0 STD5.60
2024-04-23 15:15:18 18 19.80 0.090000 41.649648 41.62752893 0 0 0 0 0 0 0 0 STD5.60
2024-04-23 15:10:16 22 19.20 0.110000 41.649648 41.62752893 0 0 0 0 0 0 0 0 STD5.60
2024-04-23 15:05:14 22 17.50 0.110000 41.649648 41.62752893 0 0 0 0 0 0 0 0 STD5.60
2024-04-23 15:00:13 16 17.40 0.080000 41.649648 41.62752893 0 0 0 0 0 0 0 0 STD5.60
2024-04-23 14:55:09 13 16.90 0.065000 41.649648 41.62752893 0 0 0 0 0 0 0 0 STD5.60
2024-04-23 14:50:08 20 17.60 0.100000 41.649648 41.62752893 0 0 0 0 0 0 0 0 STD5.60
2024-04-23 14:45:05 24 18.10 0.120000 41.649648 41.62752893 0 0 0 0 0 0 0 0 STD5.60
2024-04-23 14:40:04 12 17.90 0.060000 41.649648 41.62752893 0 0 0 0 0 0 0 0 STD5.60
2024-04-23 14:34:56 20 17.60 0.100000 41.649648 41.62752893 0 0 0 0 0 0 0 0 STD5.60
2024-04-23 14:29:54 19 17.10 0.095000 41.649648 41.62752893 0 0 0 0 0 0 0 0 STD5.60
2024-04-23 14:24:52 18 17.50 0.090000 41.649648 41.62752893 0 0 0 0 0 0 0 0 STD5.60
2024-04-23 14:19:51 21 16.70 0.105000 41.649648 41.62752893 0 0 0 0 0 0 0 0 STD5.60
2024-04-23 14:14:49 20 19.00 0.100000 41.649648 41.62752893 0 0 0 0 0 0 0 0 STD5.60
2024-04-23 14:09:46 24 20.10 0.120000 41.649648 41.62752893 0 0 0 0 0 0 0 0 STD5.60
2024-04-23 14:04:44 17 19.40 0.085000 41.649648 41.62752893 0 0 0 0 0 0 0 0 STD5.60
2024-04-23 13:59:43 29 19.50 0.145000 41.649648 41.62752893 0 0 0 0 0 0 0 0 STD5.60
2024-04-23 13:54:40 25 20.00 0.125000 41.649648 41.62752893 0 0 0 0 0 0 0 0 STD5.60
2024-04-23 13:49:38 18 20.40 0.090000 41.649648 41.62752893 0 0 0 0 0 0 0 0 STD5.60
2024-04-23 13:44:36 18 17.90 0.090000 41.649648 41.62752893 0 0 0 0 0 0 0 0 STD5.60
2024-04-23 13:39:30 15 19.50 0.075000 41.649648 41.62752893 0 0 0 0 0 0 0 0 STD5.60
2024-04-23 13:33:58 25 19.10 0.125000 41.649648 41.62752893 0 0 0 0 0 0 0 0 STD5.60
2024-04-23 13:28:56 21 17.90 0.105000 41.649648 41.62752893 0 0 0 0 0 0 0 0 STD5.60
2024-04-23 13:23:53 19 18.80 0.095000 41.649648 41.62752893 0 0 0 0 0 0 0 0 STD5.60
2024-04-23 13:18:51 17 17.70 0.085000 41.649648 41.62752893 0 0 0 0 0 0 0 0 STD5.60
2024-04-23 13:13:49 17 18.10 0.085000 41.649648 41.62752893 0 0 0 0 0 0 0 0 STD5.60
2024-04-23 13:08:47 20 17.70 0.100000 41.649648 41.62752893 0 0 0 0 0 0 0 0 STD5.60
2024-04-23 13:03:45 9 16.40 0.045000 41.649648 41.62752893 0 0 0 0 0 0 0 0 STD5.60
2024-04-23 12:58:43 22 18.60 0.110000 41.649648 41.62752893 0 0 0 0 0 0 0 0 STD5.60
2024-04-23 12:53:41 19 20.10 0.095000 41.649648 41.62752893 0 0 0 0 0 0 0 0 STD5.60
2024-04-23 12:48:38 23 17.90 0.115000 41.649648 41.62752893 0 0 0 0 0 0 0 0 STD5.60
2024-04-23 12:43:36 16 16.90 0.080000 41.649648 41.62752893 0 0 0 0 0 0 0 0 STD5.60
2024-04-23 12:38:19 15 18.70 0.075000 41.649648 41.62752893 0 0 0 0 0 0 0 0 STD5.60
2024-04-23 12:32:48 21 19.10 0.105000 41.649648 41.62752893 0 0 0 0 0 0 0 0 STD5.60
2024-04-23 12:27:45 17 19.10 0.085000 41.649648 41.62752893 0 0 0 0 0 0 0 0 STD5.60
2024-04-23 12:22:43 19 19.80 0.095000 41.649648 41.62752893 0 0 0 0 0 0 0 0 STD5.60
2024-04-23 12:17:41 14 18.80 0.070000 41.649648 41.62752893 0 0 0 0 0 0 0 0 STD5.60
2024-04-23 12:12:39 18 18.10 0.090000 41.649648 41.62752893 0 0 0 0 0 0 0 0 STD5.60
2024-04-23 12:07:37 19 18.70 0.095000 41.649648 41.62752893 0 0 0 0 0 0 0 0 STD5.60
2024-04-23 12:02:34 22 19.40 0.110000 41.649648 41.62752893 0 0 0 0 0 0 0 0 STD5.60
2024-04-23 11:57:32 19 19.30 0.095000 41.649648 41.62752893 0 0 0 0 0 0 0 0 STD5.60
2024-04-23 11:52:30 13 16.50 0.065000 41.649648 41.62752893 0 0 0 0 0 0 0 0 STD5.60
2024-04-23 11:47:28 20 15.80 0.100000 41.649648 41.62752893 0 0 0 0 0 0 0 0 STD5.60
2024-04-23 11:42:26 18 18.90 0.090000 41.649648 41.62752893 0 0 0 0 0 0 0 0 STD5.60
2024-04-23 11:36:09 12 19.30 0.060000 41.649648 41.62752893 0 0 0 0 0 0 0 0 STD5.60
2024-04-23 11:30:52 14 17.80 0.070000 41.649648 41.62752893 0 0 0 0 0 0 0 0 STD5.60
2024-04-23 11:25:50 14 18.00 0.070000 41.649648 41.62752893 0 0 0 0 0 0 0 0 STD5.60
2024-04-23 11:20:47 16 19.20 0.080000 41.649648 41.62752893 0 0 0 0 0 0 0 0 STD5.60
2024-04-23 11:15:45 19 18.90 0.095000 41.649648 41.62752893 0 0 0 0 0 0 0 0 STD5.60
2024-04-23 11:10:43 14 19.60 0.070000 41.649648 41.62752893 0 0 0 0 0 0 0 0 STD5.60
2024-04-23 11:05:41 19 20.20 0.095000 41.649648 41.62752893 0 0 0 0 0 0 0 0 STD5.60
2024-04-23 11:00:38 19 19.20 0.095000 41.649648 41.62752893 0 0 0 0 0 0 0 0 STD5.60
2024-04-23 10:55:36 15 18.40 0.075000 41.649648 41.62752893 0 0 0 0 0 0 0 0 STD5.60
2024-04-23 10:50:34 18 18.00 0.090000 41.649648 41.62752893 0 0 0 0 0 0 0 0 STD5.60
2024-04-23 10:45:32 15 18.10 0.075000 41.649648 41.62752893 0 0 0 0 0 0 0 0 STD5.60
2024-04-23 10:40:30 14 19.00 0.070000 41.649648 41.62752893 0 0 0 0 0 0 0 0 STD5.60
2024-04-23 10:35:28 21 18.90 0.105000 41.649648 41.62752893 0 0 0 0 0 0 0 0 STD5.60
2024-04-23 10:30:27 21 16.80 0.105000 41.649648 41.62752893 0 0 0 0 0 0 0 0 STD5.60
2024-04-23 10:25:23 15 16.70 0.075000 41.649648 41.62752893 0 0 0 0 0 0 0 0 STD5.60
2024-04-23 10:20:21 16 17.70 0.080000 41.649648 41.62752893 0 0 0 0 0 0 0 0 STD5.60
2024-04-23 10:15:19 24 19.30 0.120000 41.649648 41.62752893 0 0 0 0 0 0 0 0 STD5.60
2024-04-23 10:10:17 22 19.30 0.110000 41.649648 41.62752893 0 0 0 0 0 0 0 0 STD5.60
2024-04-23 10:05:15 17 18.50 0.085000 41.649648 41.62752893 0 0 0 0 0 0 0 0 STD5.60
2024-04-23 10:00:13 15 20.20 0.075000 41.649648 41.62752893 0 0 0 0 0 0 0 0 STD5.60
2024-04-23 09:55:10 12 18.70 0.060000 41.649648 41.62752893 0 0 0 0 0 0 0 0 STD5.60
2024-04-23 09:50:08 15 16.10 0.075000 41.649648 41.62752893 0 0 0 0 0 0 0 0 STD5.60
2024-04-23 09:45:07 16 16.80 0.080000 41.649648 41.62752893 0 0 0 0 0 0 0 0 STD5.60
2024-04-23 09:40:05 15 8.60 0.075000 41.649648 41.62752893 0 0 0 0 0 0 0 0 STD5.60
2024-04-19 12:34:42 12 16.20 0.060000 41.649648 41.62752893 0 0 0 0 0 0 0 0 STD5.60
2024-04-19 12:29:40 17 17.60 0.085000 41.649648 41.62752893 0 0 0 0 0 0 0 0 STD5.60
2024-04-19 12:24:37 19 18.40 0.095000 41.649648 41.62752893 0 0 0 0 0 0 0 0 STD5.60
2024-04-19 12:19:35 16 17.50 0.080000 41.649648 41.62752893 0 0 0 0 0 0 0 0 STD5.60
2024-04-19 12:14:33 18 16.60 0.090000 41.649648 41.62752893 0 0 0 0 0 0 0 0 STD5.60
2024-04-19 12:09:31 20 18.00 0.100000 41.649648 41.62752893 0 0 0 0 0 0 0 0 STD5.60
2024-04-19 12:03:22 24 20.40 0.120000 41.649648 41.62752893 0 0 0 0 0 0 0 0 STD5.60
2024-04-19 11:58:20 22 21.10 0.110000 41.649648 41.62752893 0 0 0 0 0 0 0 0 STD5.60
2024-04-19 11:53:18 15 19.90 0.075000 41.649648 41.62752893 0 0 0 0 0 0 0 0 STD5.60
2024-04-19 11:48:15 20 17.00 0.100000 41.649648 41.62752893 0 0 0 0 0 0 0 0 STD5.60
2024-04-19 11:43:13 16 17.00 0.080000 41.649648 41.62752893 0 0 0 0 0 0 0 0 STD5.60
2024-04-19 11:38:11 17 18.40 0.085000 41.649648 41.62752893 0 0 0 0 0 0 0 0 STD5.60
2024-04-19 11:33:09 17 16.60 0.085000 41.649648 41.62752893 0 0 0 0 0 0 0 0 STD5.60
2024-04-19 11:28:07 16 17.80 0.080000 41.649648 41.62752893 0 0 0 0 0 0 0 0 STD5.60
2024-04-19 11:23:05 23 19.60 0.115000 41.649648 41.62752893 0 0 0 0 0 0 0 0 STD5.60
2024-04-19 11:18:03 16 17.60 0.080000 41.649648 41.62752893 0 0 0 0 0 0 0 0 STD5.60
2024-04-19 11:13:00 21 15.80 0.105000 41.649648 41.62752893 0 0 0 0 0 0 0 0 STD5.60
2024-04-19 11:07:58 13 16.60 0.065000 41.649648 41.62752893 0 0 0 0 0 0 0 0 STD5.60
2024-04-19 11:02:10 23 18.50 0.115000 41.649648 41.62752893 0 0 0 0 0 0 0 0 STD5.60
2024-04-19 10:57:08 20 19.60 0.100000 41.649648 41.62752893 0 0 0 0 0 0 0 0 STD5.60
2024-04-19 10:52:06 19 19.10 0.095000 41.649648 41.62752893 0 0 0 0 0 0 0 0 STD5.60
2024-04-19 10:47:04 22 16.60 0.110000 41.649648 41.62752893 0 0 0 0 0 0 0 0 STD5.60
2024-04-19 10:42:01 14 16.50 0.070000 41.649648 41.62752893 0 0 0 0 0 0 0 0 STD5.60
2024-04-19 10:36:59 16 18.70 0.080000 41.649648 41.62752893 0 0 0 0 0 0 0 0 STD5.60
2024-04-19 10:31:57 18 18.60 0.090000 41.649648 41.62752893 0 0 0 0 0 0 0 0 STD5.60
2024-04-19 10:26:55 28 17.10 0.140000 41.649648 41.62752893 0 0 0 0 0 0 0 0 STD5.60
2024-04-19 10:21:53 14 17.50 0.070000 41.649648 41.62752893 0 0 0 0 0 0 0 0 STD5.60
2024-04-19 10:16:51 19 17.60 0.095000 41.649648 41.62752893 0 0 0 0 0 0 0 0 STD5.60
2024-04-19 10:11:49 21 17.90 0.105000 41.649648 41.62752893 0 0 0 0 0 0 0 0 STD5.60
2024-04-19 10:06:46 23 9.00 0.115000 41.649648 41.62752893 0 0 0 0 0 0 0 0 STD5.60
2024-04-19 10:01:42 20 18.20 0.100000 41.649648 41.62752893 0 0 0 0 0 0 0 0 STD5.60
2024-04-19 09:56:40 22 20.10 0.110000 41.649648 41.62752893 0 0 0 0 0 0 0 0 STD5.60
2024-04-19 09:51:38 26 20.30 0.130000 41.649648 41.62752893 0 0 0 0 0 0 0 0 STD5.60
2024-04-19 09:46:36 14 19.30 0.070000 41.649648 41.62752893 0 0 0 0 0 0 0 0 STD5.60
2024-04-19 09:41:33 14 19.30 0.070000 41.649648 41.62752893 0 0 0 0 0 0 0 0 STD5.60
2024-04-19 09:36:31 24 18.30 0.120000 41.649648 41.62752893 0 0 0 0 0 0 0 0 STD5.60
2024-04-19 09:31:29 12 17.20 0.060000 41.649648 41.62752893 0 0 0 0 0 0 0 0 STD5.60
2024-04-19 09:26:27 16 19.40 0.080000 41.649648 41.62752893 0 0 0 0 0 0 0 0 STD5.60
2024-04-19 09:21:24 23 20.60 0.115000 41.649648 41.62752893 0 0 0 0 0 0 0 0 STD5.60
2024-04-19 09:16:22 20 17.20 0.100000 41.649648 41.62752893 0 0 0 0 0 0 0 0 STD5.60
2024-04-19 09:11:20 12 16.60 0.060000 41.649648 41.62752893 0 0 0 0 0 0 0 0 STD5.60
2024-04-19 09:06:17 21 18.30 0.105000 41.649648 41.62752893 0 0 0 0 0 0 0 0 STD5.60
2024-04-19 09:01:01 18 17.10 0.090000 41.649648 41.62752893 0 0 0 0 0 0 0 0 STD5.60
2024-04-19 08:55:58 23 19.30 0.115000 41.649648 41.62752893 0 0 0 0 0 0 0 0 STD5.60
2024-04-19 08:50:56 25 19.60 0.125000 41.649648 41.62752893 0 0 0 0 0 0 0 0 STD5.60
2024-04-19 08:45:54 13 16.20 0.065000 41.649648 41.62752893 0 0 0 0 0 0 0 0 STD5.60
2024-04-19 08:40:51 14 17.30 0.070000 41.649648 41.62752893 0 0 0 0 0 0 0 0 STD5.60
2024-04-19 08:35:49 17 17.30 0.085000 41.649648 41.62752893 0 0 0 0 0 0 0 0 STD5.60
2024-04-19 08:30:47 17 16.80 0.085000 41.649648 41.62752893 0 0 0 0 0 0 0 0 STD5.60
2024-04-19 08:25:45 22 17.90 0.110000 41.649648 41.62752893 0 0 0 0 0 0 0 0 STD5.60
2024-04-19 08:20:42 22 19.80 0.110000 41.649648 41.62752893 0 0 0 0 0 0 0 0 STD5.60
2024-04-19 08:15:40 18 19.80 0.090000 41.649648 41.62752893 0 0 0 0 0 0 0 0 STD5.60
2024-04-19 08:10:38 17 18.20 0.085000 41.649648 41.62752893 0 0 0 0 0 0 0 0 STD5.60
2024-04-19 08:05:35 24 18.50 0.120000 41.649648 41.62752893 0 0 0 0 0 0 0 0 STD5.60
2024-04-19 07:59:33 12 18.20 0.060000 41.649648 41.62752893 0 0 0 0 0 0 0 0 STD5.60
2024-04-19 07:54:31 13 15.40 0.065000 41.649648 41.62752893 0 0 0 0 0 0 0 0 STD5.60
2024-04-19 07:49:29 15 16.70 0.075000 41.649648 41.62752893 0 0 0 0 0 0 0 0 STD5.60
2024-04-19 07:44:26 17 18.60 0.085000 41.649648 41.62752893 0 0 0 0 0 0 0 0 STD5.60
2024-04-19 07:39:24 14 15.70 0.070000 41.649648 41.62752893 0 0 0 0 0 0 0 0 STD5.60
2024-04-19 07:34:22 17 16.00 0.085000 41.649648 41.62752893 0 0 0 0 0 0 0 0 STD5.60
2024-04-19 07:29:20 16 18.20 0.080000 41.649648 41.62752893 0 0 0 0 0 0 0 0 STD5.60
2024-04-19 07:24:18 16 21.10 0.080000 41.649648 41.62752893 0 0 0 0 0 0 0 0 STD5.60
2024-04-19 07:19:15 25 21.00 0.125000 41.649648 41.62752893 0 0 0 0 0 0 0 0 STD5.60
2024-04-19 07:14:13 16 19.90 0.080000 41.649648 41.62752893 0 0 0 0 0 0 0 0 STD5.60
2024-04-19 07:09:11 18 18.50 0.090000 41.649648 41.62752893 0 0 0 0 0 0 0 0 STD5.60
2024-04-19 07:04:08 16 18.50 0.080000 41.649648 41.62752893 0 0 0 0 0 0 0 0 STD5.60
2024-04-19 06:59:00 15 19.30 0.075000 41.649648 41.62752893 0 0 0 0 0 0 0 0 STD5.60
2024-04-19 06:53:58 18 19.20 0.090000 41.649648 41.62752893 0 0 0 0 0 0 0 0 STD5.60
2024-04-19 06:48:56 22 21.20 0.110000 41.649648 41.62752893 0 0 0 0 0 0 0 0 STD5.60
2024-04-19 06:43:53 24 20.20 0.120000 41.649648 41.62752893 0 0 0 0 0 0 0 0 STD5.60
2024-04-19 06:38:51 15 18.70 0.075000 41.649648 41.62752893 0 0 0 0 0 0 0 0 STD5.60
2024-04-19 06:33:49 24 17.40 0.120000 41.649648 41.62752893 0 0 0 0 0 0 0 0 STD5.60
2024-04-19 06:28:47 13 15.60 0.065000 41.649648 41.62752893 0 0 0 0 0 0 0 0 STD5.60
2024-04-19 06:23:45 10 17.10 0.050000 41.649648 41.62752893 0 0 0 0 0 0 0 0 STD5.60
2024-04-19 06:18:42 17 17.60 0.085000 41.649648 41.62752893 0 0 0 0 0 0 0 0 STD5.60
2024-04-19 06:13:40 14 18.00 0.070000 41.649648 41.62752893 0 0 0 0 0 0 0 0 STD5.60
2024-04-19 06:08:38 23 18.20 0.115000 41.649648 41.62752893 0 0 0 0 0 0 0 0 STD5.60
2024-04-19 06:03:36 20 17.80 0.100000 41.649648 41.62752893 0 0 0 0 0 0 0 0 STD5.60
2024-04-19 05:58:03 20 19.00 0.100000 41.649648 41.62752893 0 0 0 0 0 0 0 0 STD5.60
2024-04-19 05:53:01 15 17.50 0.075000 41.649648 41.62752893 0 0 0 0 0 0 0 0 STD5.60
2024-04-19 05:47:59 17 17.30 0.085000 41.649648 41.62752893 0 0 0 0 0 0 0 0 STD5.60
2024-04-19 05:42:56 17 20.90 0.085000 41.649648 41.62752893 0 0 0 0 0 0 0 0 STD5.60
2024-04-19 05:37:54 23 20.20 0.115000 41.649648 41.62752893 0 0 0 0 0 0 0 0 STD5.60
2024-04-19 05:32:52 17 17.10 0.085000 41.649648 41.62752893 0 0 0 0 0 0 0 0 STD5.60
2024-04-19 05:27:50 15 16.60 0.075000 41.649648 41.62752893 0 0 0 0 0 0 0 0 STD5.60
2024-04-19 05:22:48 17 19.10 0.085000 41.649648 41.62752893 0 0 0 0 0 0 0 0 STD5.60
2024-04-19 05:17:45 19 18.80 0.095000 41.649648 41.62752893 0 0 0 0 0 0 0 0 STD5.60
2024-04-19 05:12:43 21 16.90 0.105000 41.649648 41.62752893 0 0 0 0 0 0 0 0 STD5.60
2024-04-19 05:07:41 20 16.30 0.100000 41.649648 41.62752893 0 0 0 0 0 0 0 0 STD5.60
2024-04-19 05:02:39 19 16.50 0.095000 41.649648 41.62752893 0 0 0 0 0 0 0 0 STD5.60
2024-04-19 04:57:22 19 17.60 0.095000 41.649648 41.62752893 0 0 0 0 0 0 0 0 STD5.60
2024-04-19 04:52:20 18 18.00 0.090000 41.649648 41.62752893 0 0 0 0 0 0 0 0 STD5.60
2024-04-19 04:47:18 14 18.30 0.070000 41.649648 41.62752893 0 0 0 0 0 0 0 0 STD5.60
2024-04-19 04:42:16 15 17.90 0.075000 41.649648 41.62752893 0 0 0 0 0 0 0 0 STD5.60
2024-04-19 04:37:13 14 17.40 0.070000 41.649648 41.62752893 0 0 0 0 0 0 0 0 STD5.60
2024-04-19 04:32:11 15 18.30 0.075000 41.649648 41.62752893 0 0 0 0 0 0 0 0 STD5.60
2024-04-19 04:27:08 13 20.20 0.065000 41.649648 41.62752893 0 0 0 0 0 0 0 0 STD5.60